Time;durP1;ratioP1;P1;durP2;ratioP2;P2;SDS_P1;SDS_P2;PMS_P1;PMS_P2;Temp;Humidity;BMP_temperature;BMP_pressure;BME280_temperature;BME280_humidity;BME280_pressure;Samples;Min_cycle;Max_cycle;Signal;HPM_P1;HPM_P2
2022/03/07 00:01:25;;;;;;;128.70;70.80;;;;;;;;;;4925085;29;20388;-74
2022/03/07 00:03:52;;;;;;;144.93;74.10;;;;;;;;;;4942481;29;20016;-73
2022/03/07 00:06:21;;;;;;;146.85;75.35;;;;;;;;;;4948875;29;20039;-73
2022/03/07 00:08:48;;;;;;;159.27;80.07;;;;;;;;;;4955845;29;20029;-73
2022/03/07 00:11:15;;;;;;;182.07;87.25;;;;;;;;;;4954921;29;20054;-73
2022/03/07 00:13:41;;;;;;;159.63;81.95;;;;;;;;;;4954306;29;20051;-73
2022/03/07 00:16:07;;;;;;;199.63;91.10;;;;;;;;;;4949423;29;20043;-72
2022/03/07 00:18:39;;;;;;;172.10;85.07;;;;;;;;;;4936184;29;20086;-73
2022/03/07 00:21:12;;;;;;;162.45;83.22;;;;;;;;;;4940161;29;20031;-74
2022/03/07 00:23:43;;;;;;;177.40;85.30;;;;;;;;;;4933860;29;20038;-75
2022/03/07 00:26:11;;;;;;;159.77;81.45;;;;;;;;;;4936197;29;20059;-72
2022/03/07 00:28:37;;;;;;;165.60;80.75;;;;;;;;;;4936061;29;20023;-74
2022/03/07 00:31:04;;;;;;;166.07;80.18;;;;;;;;;;4937614;29;20556;-72
2022/03/07 00:33:31;;;;;;;192.18;88.47;;;;;;;;;;4952138;29;20031;-74
2022/03/07 00:35:57;;;;;;;190.27;93.45;;;;;;;;;;4953573;29;20027;-73
2022/03/07 00:38:26;;;;;;;181.93;87.55;;;;;;;;;;4950471;29;20118;-73
2022/03/07 00:40:53;;;;;;;183.75;86.35;;;;;;;;;;4947473;29;20024;-74
2022/03/07 00:43:21;;;;;;;193.00;89.60;;;;;;;;;;4937779;29;20052;-74
2022/03/07 00:45:49;;;;;;;182.18;84.20;;;;;;;;;;4935411;29;20377;-75
2022/03/07 00:48:16;;;;;;;190.85;86.85;;;;;;;;;;4944307;29;20050;-74
2022/03/07 00:50:50;;;;;;;226.45;93.53;;;;;;;;;;4938127;29;20043;-74
2022/03/07 00:53:17;;;;;;;188.68;85.20;;;;;;;;;;4953503;29;20477;-74
2022/03/07 00:55:44;;;;;;;181.05;83.32;;;;;;;;;;4954924;29;20481;-74
2022/03/07 00:58:10;;;;;;;178.32;82.57;;;;;;;;;;4952358;28;20087;-74
2022/03/07 01:00:37;;;;;;;164.90;78.53;;;;;;;;;;4918281;29;20036;-73
2022/03/07 01:03:04;;;;;;;182.40;84.97;;;;;;;;;;4963832;29;20031;-73
2022/03/07 01:05:30;;;;;;;191.52;85.53;;;;;;;;;;4951131;29;20106;-74
2022/03/07 01:08:03;;;;;;;162.10;78.15;;;;;;;;;;4935451;29;20028;-74
2022/03/07 01:10:29;;;;;;;186.63;81.65;;;;;;;;;;4937809;29;20063;-74
2022/03/07 01:12:55;;;;;;;142.65;71.00;;;;;;;;;;4935289;29;20024;-74
2022/03/07 01:15:21;;;;;;;136.32;70.95;;;;;;;;;;4935202;29;20038;-74
2022/03/07 01:17:48;;;;;;;132.90;68.05;;;;;;;;;;4935909;29;20074;-72
2022/03/07 01:20:14;;;;;;;131.43;70.22;;;;;;;;;;4932860;29;20486;-74
2022/03/07 01:22:43;;;;;;;137.05;70.60;;;;;;;;;;4934599;29;20110;-74
2022/03/07 01:25:09;;;;;;;131.95;67.82;;;;;;;;;;4935326;29;20032;-73
2022/03/07 01:27:38;;;;;;;122.35;65.13;;;;;;;;;;4935133;29;20035;-73
2022/03/07 01:30:05;;;;;;;114.03;62.83;;;;;;;;;;4935227;29;20111;-74
2022/03/07 01:32:31;;;;;;;118.32;62.40;;;;;;;;;;4936368;29;20035;-74
2022/03/07 01:34:57;;;;;;;106.05;60.00;;;;;;;;;;4937573;29;20468;-74
2022/03/07 01:37:23;;;;;;;109.78;61.25;;;;;;;;;;4935021;29;20040;-74
2022/03/07 01:39:49;;;;;;;104.28;58.45;;;;;;;;;;4935169;29;20038;-74
2022/03/07 01:42:15;;;;;;;124.53;61.95;;;;;;;;;;4935120;29;20413;-73
2022/03/07 01:44:41;;;;;;;115.35;61.63;;;;;;;;;;4934724;29;20024;-72
2022/03/07 01:47:07;;;;;;;105.40;58.80;;;;;;;;;;4934521;29;20048;-74
2022/03/07 01:49:33;;;;;;;97.55;55.50;;;;;;;;;;4935348;29;20027;-74
2022/03/07 01:52:00;;;;;;;118.65;60.08;;;;;;;;;;4934769;29;20031;-74
2022/03/07 01:54:26;;;;;;;113.72;60.30;;;;;;;;;;4935280;29;20039;-74
2022/03/07 01:56:53;;;;;;;123.47;64.85;;;;;;;;;;4934623;29;20043;-73
2022/03/07 01:59:21;;;;;;;106.97;58.60;;;;;;;;;;4935008;29;20047;-72
2022/03/07 02:01:47;;;;;;;98.85;58.08;;;;;;;;;;4934588;29;20039;-74
2022/03/07 02:04:14;;;;;;;111.03;59.85;;;;;;;;;;4936099;29;20456;-74
2022/03/07 02:06:41;;;;;;;100.25;58.47;;;;;;;;;;4917910;29;20080;-73
2022/03/07 02:09:08;;;;;;;112.38;61.05;;;;;;;;;;4934893;29;20024;-73
2022/03/07 02:11:34;;;;;;;93.60;56.22;;;;;;;;;;4935034;29;20103;-73
2022/03/07 02:14:19;;;;;;;115.47;61.35;;;;;;;;;;4939616;29;20034;-74
2022/03/07 02:16:45;;;;;;;113.00;63.13;;;;;;;;;;4924015;29;20043;-73
2022/03/07 02:19:12;;;;;;;99.68;58.80;;;;;;;;;;4939172;29;20031;-74
2022/03/07 02:21:42;;;;;;;110.28;58.40;;;;;;;;;;4938602;29;20398;-72
2022/03/07 02:24:08;;;;;;;126.40;64.28;;;;;;;;;;4938640;29;20024;-73
2022/03/07 02:26:34;;;;;;;121.70;63.42;;;;;;;;;;4938195;29;20028;-74
2022/03/07 02:29:00;;;;;;;118.10;62.88;;;;;;;;;;4933917;29;20123;-72
2022/03/07 02:31:27;;;;;;;134.00;63.00;;;;;;;;;;4933262;29;20027;-72
2022/03/07 02:33:53;;;;;;;112.57;61.15;;;;;;;;;;4936761;29;20031;-73
2022/03/07 02:36:19;;;;;;;129.45;64.05;;;;;;;;;;4941816;29;20031;-73
2022/03/07 02:38:45;;;;;;;120.85;60.92;;;;;;;;;;4936632;29;20034;-73
2022/03/07 02:41:11;;;;;;;133.13;65.35;;;;;;;;;;4943522;29;20054;-73
2022/03/07 02:43:37;;;;;;;131.48;66.25;;;;;;;;;;4937978;29;20028;-74
2022/03/07 02:46:04;;;;;;;130.77;65.60;;;;;;;;;;4937371;29;20094;-72
2022/03/07 02:48:30;;;;;;;139.90;66.10;;;;;;;;;;4937801;29;20083;-73
2022/03/07 02:50:59;;;;;;;144.32;67.18;;;;;;;;;;4937408;29;20028;-73
2022/03/07 02:53:26;;;;;;;130.90;65.38;;;;;;;;;;4937653;29;20074;-73
2022/03/07 02:55:52;;;;;;;138.70;65.25;;;;;;;;;;4937743;29;20082;-72
2022/03/07 02:58:18;;;;;;;135.73;66.68;;;;;;;;;;4937618;29;20059;-73
2022/03/07 03:00:44;;;;;;;126.93;65.00;;;;;;;;;;4937587;29;20055;-72
2022/03/07 03:03:10;;;;;;;123.30;65.07;;;;;;;;;;4937662;29;20086;-73
2022/03/07 03:05:36;;;;;;;106.43;60.63;;;;;;;;;;4938029;29;20038;-72
2022/03/07 03:08:02;;;;;;;109.45;58.38;;;;;;;;;;4938013;29;20030;-73
2022/03/07 03:10:28;;;;;;;108.85;58.90;;;;;;;;;;4937052;29;20034;-73
2022/03/07 03:12:55;;;;;;;105.93;57.83;;;;;;;;;;4943014;29;20028;-73
2022/03/07 03:15:21;;;;;;;104.30;57.80;;;;;;;;;;4936214;29;20051;-74
2022/03/07 03:17:47;;;;;;;103.80;58.30;;;;;;;;;;4937175;29;20122;-73
2022/03/07 03:20:14;;;;;;;102.72;57.90;;;;;;;;;;4937448;29;20024;-72
2022/03/07 03:22:40;;;;;;;116.57;61.53;;;;;;;;;;4936702;29;20031;-72
2022/03/07 03:25:07;;;;;;;114.47;58.88;;;;;;;;;;4935038;29;20055;-73
2022/03/07 03:27:34;;;;;;;91.32;53.38;;;;;;;;;;4937493;29;20032;-72
2022/03/07 03:30:00;;;;;;;106.63;58.25;;;;;;;;;;4937478;29;20023;-73
2022/03/07 03:32:27;;;;;;;99.70;56.75;;;;;;;;;;4938707;29;20066;-73
2022/03/07 03:34:55;;;;;;;101.72;56.13;;;;;;;;;;4923428;29;20031;-74
2022/03/07 03:37:21;;;;;;;98.05;54.88;;;;;;;;;;4919840;29;20161;-73
2022/03/07 03:39:47;;;;;;;97.90;54.78;;;;;;;;;;4937139;29;20038;-74
2022/03/07 03:42:14;;;;;;;100.13;55.63;;;;;;;;;;4936782;29;20074;-73
2022/03/07 03:44:40;;;;;;;90.82;51.35;;;;;;;;;;4936460;29;20075;-73
2022/03/07 03:47:06;;;;;;;94.82;53.35;;;;;;;;;;4936755;29;20077;-73
2022/03/07 03:49:32;;;;;;;84.82;50.10;;;;;;;;;;4936578;29;20028;-73
2022/03/07 03:51:58;;;;;;;85.95;49.67;;;;;;;;;;4936466;29;20119;-74
2022/03/07 03:54:24;;;;;;;95.93;54.05;;;;;;;;;;4936326;29;20043;-73
2022/03/07 03:56:51;;;;;;;80.13;49.25;;;;;;;;;;4937667;29;20114;-73
2022/03/07 03:59:17;;;;;;;80.35;49.50;;;;;;;;;;4919450;29;20095;-73
2022/03/07 04:01:44;;;;;;;83.60;48.88;;;;;;;;;;4936479;29;20114;-72
2022/03/07 04:04:12;;;;;;;74.57;46.65;;;;;;;;;;4938871;29;20027;-73
2022/03/07 04:06:39;;;;;;;78.28;49.10;;;;;;;;;;4933922;29;20031;-74
2022/03/07 04:09:08;;;;;;;75.85;46.33;;;;;;;;;;4936466;29;20078;-74
2022/03/07 04:11:34;;;;;;;72.72;46.60;;;;;;;;;;4941298;29;20038;-73
2022/03/07 04:14:00;;;;;;;67.15;42.35;;;;;;;;;;4936633;29;20040;-74
2022/03/07 04:16:26;;;;;;;67.82;41.63;;;;;;;;;;4937177;29;20059;-73
2022/03/07 04:18:52;;;;;;;66.80;41.95;;;;;;;;;;4932989;29;20032;-73
2022/03/07 04:21:19;;;;;;;66.93;41.92;;;;;;;;;;4934023;29;20082;-74
2022/03/07 04:23:45;;;;;;;63.72;40.05;;;;;;;;;;4939044;29;20392;-73
2022/03/07 04:26:11;;;;;;;74.20;44.13;;;;;;;;;;4936108;29;20023;-74
2022/03/07 04:28:38;;;;;;;67.55;43.47;;;;;;;;;;4936495;29;20028;-72
2022/03/07 04:31:04;;;;;;;65.85;42.92;;;;;;;;;;4935963;29;20190;-74
2022/03/07 04:33:30;;;;;;;63.63;40.53;;;;;;;;;;4940824;29;20032;-74
2022/03/07 04:35:56;;;;;;;69.25;42.28;;;;;;;;;;4934629;29;20381;-73
2022/03/07 04:38:25;;;;;;;68.82;43.42;;;;;;;;;;4936024;29;20035;-73
2022/03/07 04:40:52;;;;;;;70.07;45.22;;;;;;;;;;4939865;29;20020;-73
2022/03/07 04:43:18;;;;;;;64.60;42.28;;;;;;;;;;4935908;29;20083;-74
2022/03/07 04:45:44;;;;;;;62.95;39.45;;;;;;;;;;4935929;29;20083;-74
2022/03/07 04:48:11;;;;;;;62.88;42.05;;;;;;;;;;4938786;29;20024;-73
2022/03/07 04:50:37;;;;;;;64.32;41.83;;;;;;;;;;4935391;29;20039;-74
2022/03/07 04:53:03;;;;;;;63.90;40.85;;;;;;;;;;4935732;29;20031;-73
2022/03/07 04:55:29;;;;;;;69.05;42.20;;;;;;;;;;4935852;29;20028;-74
2022/03/07 04:57:55;;;;;;;68.60;43.90;;;;;;;;;;4936397;29;20059;-74
2022/03/07 05:00:21;;;;;;;67.07;42.00;;;;;;;;;;4934869;29;20561;-73
2022/03/07 05:02:47;;;;;;;75.60;44.97;;;;;;;;;;4935696;29;20477;-74
2022/03/07 05:05:15;;;;;;;80.20;46.75;;;;;;;;;;4935728;29;20481;-73
2022/03/07 05:07:41;;;;;;;77.80;47.20;;;;;;;;;;4936521;29;20079;-74
2022/03/07 05:10:08;;;;;;;82.95;47.13;;;;;;;;;;4935551;29;20027;-74
2022/03/07 05:12:36;;;;;;;77.57;47.92;;;;;;;;;;4939811;29;20028;-75
2022/03/07 05:15:08;;;;;;;79.03;47.08;;;;;;;;;;4934229;29;20122;-73
2022/03/07 05:17:44;;;;;;;84.35;48.72;;;;;;;;;;4935447;29;20043;-74
2022/03/07 05:20:11;;;;;;;80.53;48.10;;;;;;;;;;4937674;29;20083;-73
2022/03/07 05:22:37;;;;;;;79.35;48.00;;;;;;;;;;4934231;29;20399;-74
2022/03/07 05:25:04;;;;;;;82.85;48.90;;;;;;;;;;4934179;29;20529;-73
2022/03/07 05:27:31;;;;;;;82.25;48.88;;;;;;;;;;4935411;29;20458;-74
2022/03/07 05:29:57;;;;;;;83.95;49.10;;;;;;;;;;4940500;29;20075;-73
2022/03/07 05:32:23;;;;;;;87.18;48.95;;;;;;;;;;4934046;29;20032;-73
2022/03/07 05:34:49;;;;;;;85.22;50.10;;;;;;;;;;4935571;29;20107;-73
2022/03/07 05:37:15;;;;;;;115.65;57.10;;;;;;;;;;4937244;29;20040;-74
2022/03/07 05:39:41;;;;;;;95.32;55.30;;;;;;;;;;4935218;29;20023;-74
2022/03/07 05:42:08;;;;;;;97.60;53.83;;;;;;;;;;4934972;29;20505;-73
2022/03/07 05:44:34;;;;;;;91.47;51.38;;;;;;;;;;4934552;29;20090;-74
2022/03/07 05:47:00;;;;;;;95.90;52.83;;;;;;;;;;4935946;29;20035;-73
2022/03/07 05:49:26;;;;;;;101.85;51.47;;;;;;;;;;4938879;29;20024;-73
2022/03/07 05:51:52;;;;;;;82.72;46.97;;;;;;;;;;4939247;29;20359;-74
2022/03/07 05:54:18;;;;;;;88.57;49.50;;;;;;;;;;4938798;29;20028;-74
2022/03/07 05:56:44;;;;;;;83.47;47.00;;;;;;;;;;4939646;29;20503;-74
2022/03/07 05:59:10;;;;;;;80.68;46.10;;;;;;;;;;4937881;29;20046;-74
2022/03/07 06:01:37;;;;;;;81.75;46.97;;;;;;;;;;4938893;29;20038;-74
2022/03/07 06:04:03;;;;;;;80.05;45.08;;;;;;;;;;4939221;29;20418;-74
2022/03/07 06:06:29;;;;;;;76.28;44.22;;;;;;;;;;4939025;29;20409;-74
2022/03/07 06:08:55;;;;;;;76.07;45.03;;;;;;;;;;4937390;29;20041;-73
2022/03/07 06:11:21;;;;;;;75.88;43.60;;;;;;;;;;4938284;29;20026;-74
2022/03/07 06:13:47;;;;;;;76.45;43.13;;;;;;;;;;4937759;29;20027;-74
2022/03/07 06:16:14;;;;;;;71.45;42.60;;;;;;;;;;4938015;29;20082;-74
2022/03/07 06:18:40;;;;;;;82.10;48.88;;;;;;;;;;4941682;29;20035;-74
2022/03/07 06:21:06;;;;;;;101.90;60.25;;;;;;;;;;4938078;29;20490;-73
2022/03/07 06:23:32;;;;;;;91.95;56.25;;;;;;;;;;4938988;29;20090;-74
2022/03/07 06:25:58;;;;;;;82.85;51.78;;;;;;;;;;4936991;29;20027;-74
2022/03/07 06:28:24;;;;;;;73.45;44.67;;;;;;;;;;4942448;29;20032;-75
2022/03/07 06:30:50;;;;;;;73.07;45.78;;;;;;;;;;4937665;29;20032;-74
2022/03/07 06:33:17;;;;;;;66.82;42.58;;;;;;;;;;4939626;29;20107;-74
2022/03/07 06:35:43;;;;;;;67.80;43.55;;;;;;;;;;4937972;29;20050;-74
2022/03/07 06:38:09;;;;;;;70.13;43.33;;;;;;;;;;4937967;29;20035;-74
2022/03/07 06:40:35;;;;;;;67.82;43.47;;;;;;;;;;4938361;29;20019;-74
2022/03/07 06:43:02;;;;;;;69.30;43.78;;;;;;;;;;4937802;29;20083;-74
2022/03/07 06:45:30;;;;;;;70.82;44.55;;;;;;;;;;4937878;29;20035;-74
2022/03/07 06:48:02;;;;;;;72.90;45.58;;;;;;;;;;4921500;29;20047;-74
2022/03/07 06:50:29;;;;;;;73.75;44.65;;;;;;;;;;4938211;29;20024;-74
2022/03/07 06:52:55;;;;;;;63.70;41.42;;;;;;;;;;4941140;29;20110;-74
2022/03/07 06:55:23;;;;;;;58.45;39.70;;;;;;;;;;4920116;29;20035;-73
2022/03/07 06:57:49;;;;;;;67.18;44.10;;;;;;;;;;4937394;29;20052;-74
2022/03/07 07:00:16;;;;;;;61.92;40.88;;;;;;;;;;4933508;29;20067;-71
2022/03/07 07:02:42;;;;;;;66.88;42.92;;;;;;;;;;4935806;29;20490;-72
2022/03/07 07:05:09;;;;;;;61.85;41.95;;;;;;;;;;4937332;29;20020;-72
2022/03/07 07:07:36;;;;;;;61.80;42.53;;;;;;;;;;4937977;29;20028;-72
2022/03/07 07:10:04;;;;;;;63.10;44.13;;;;;;;;;;4937185;29;20034;-72
2022/03/07 07:12:35;;;;;;;63.50;42.78;;;;;;;;;;4937987;29;20481;-72
2022/03/07 07:15:04;;;;;;;67.47;44.38;;;;;;;;;;4937309;29;20024;-72
2022/03/07 07:17:32;;;;;;;63.20;44.47;;;;;;;;;;4937467;29;20043;-73
2022/03/07 07:19:58;;;;;;;61.53;44.20;;;;;;;;;;4932881;29;20030;-72
2022/03/07 07:22:25;;;;;;;66.57;46.80;;;;;;;;;;4952069;29;20038;-75
2022/03/07 07:24:51;;;;;;;60.40;39.50;;;;;;;;;;4935819;29;20031;-72
2022/03/07 07:27:17;;;;;;;55.90;39.38;;;;;;;;;;4937634;29;20395;-73
2022/03/07 07:29:43;;;;;;;50.85;36.53;;;;;;;;;;4938762;29;20020;-74
2022/03/07 07:32:09;;;;;;;46.55;34.47;;;;;;;;;;4937296;29;20028;-72
2022/03/07 07:34:35;;;;;;;51.92;36.17;;;;;;;;;;4936164;29;20071;-72
2022/03/07 07:37:01;;;;;;;45.15;34.25;;;;;;;;;;4935903;29;20501;-72
2022/03/07 07:39:27;;;;;;;47.45;34.38;;;;;;;;;;4936278;29;20034;-75
2022/03/07 07:41:57;;;;;;;57.17;37.65;;;;;;;;;;4935164;29;20048;-74
2022/03/07 07:44:23;;;;;;;49.22;35.75;;;;;;;;;;4940757;29;20509;-79
2022/03/07 07:46:51;;;;;;;50.20;36.97;;;;;;;;;;4949637;29;20378;-77
2022/03/07 07:49:17;;;;;;;48.75;36.05;;;;;;;;;;4948379;29;20184;-76
2022/03/07 07:51:43;;;;;;;65.18;42.80;;;;;;;;;;4966231;29;20016;-76
2022/03/07 07:54:11;;;;;;;55.72;39.53;;;;;;;;;;4949256;29;20027;-76
2022/03/07 07:56:49;;;;;;;90.28;51.60;;;;;;;;;;4952048;29;20082;-79
2022/03/07 07:59:31;;;;;;;53.55;36.83;;;;;;;;;;4945920;29;20051;-77
2022/03/07 08:02:14;;;;;;;47.50;34.95;;;;;;;;;;4944644;29;20044;-76
2022/03/07 08:04:52;;;;;;;83.97;49.78;;;;;;;;;;4948205;29;20035;-76
2022/03/07 08:07:27;;;;;;;53.80;38.15;;;;;;;;;;4938964;29;20028;-75
2022/03/07 08:09:56;;;;;;;55.90;36.67;;;;;;;;;;4931275;29;20086;-73
2022/03/07 08:12:26;;;;;;;52.72;35.88;;;;;;;;;;4932735;29;20040;-73
2022/03/07 08:14:52;;;;;;;53.60;37.75;;;;;;;;;;4948311;29;20063;-73
2022/03/07 08:17:35;;;;;;;80.20;57.30;;;;;;;;;;4936555;29;20134;-74
2022/03/07 08:20:01;;;;;;;68.97;47.85;;;;;;;;;;4949138;29;20036;-74
2022/03/07 08:22:27;;;;;;;51.20;38.35;;;;;;;;;;4952116;29;20037;-73
2022/03/07 08:24:53;;;;;;;60.05;43.05;;;;;;;;;;4960222;29;20032;-73
2022/03/07 08:27:19;;;;;;;54.22;39.30;;;;;;;;;;4954015;29;20027;-74
2022/03/07 08:29:45;;;;;;;55.58;39.78;;;;;;;;;;4944005;29;20024;-74
2022/03/07 08:32:15;;;;;;;49.28;38.05;;;;;;;;;;4944390;29;20091;-73
2022/03/07 08:34:42;;;;;;;49.97;36.75;;;;;;;;;;4948485;29;20042;-72
2022/03/07 08:37:08;;;;;;;48.00;34.72;;;;;;;;;;4949587;29;20015;-74
2022/03/07 08:39:37;;;;;;;44.92;33.53;;;;;;;;;;4947892;29;20589;-75
2022/03/07 08:42:03;;;;;;;52.60;37.75;;;;;;;;;;4937238;29;20043;-74
2022/03/07 08:44:29;;;;;;;45.42;34.38;;;;;;;;;;4951880;29;20031;-73
2022/03/07 08:46:55;;;;;;;46.95;34.50;;;;;;;;;;4947626;29;20038;-74
2022/03/07 08:49:21;;;;;;;53.67;36.88;;;;;;;;;;4967761;28;20032;-72
2022/03/07 08:51:47;;;;;;;54.22;38.53;;;;;;;;;;4952353;29;20149;-72
2022/03/07 08:54:14;;;;;;;51.35;36.83;;;;;;;;;;4956655;29;20031;-73
2022/03/07 08:56:40;;;;;;;48.17;34.13;;;;;;;;;;4952687;29;20034;-73
2022/03/07 08:59:09;;;;;;;49.13;36.10;;;;;;;;;;4948036;29;20048;-74
2022/03/07 09:01:36;;;;;;;49.60;35.13;;;;;;;;;;4930826;29;20023;-73
2022/03/07 09:04:04;;;;;;;52.55;38.35;;;;;;;;;;4939152;29;20028;-73
2022/03/07 09:06:31;;;;;;;50.22;36.05;;;;;;;;;;4924642;29;20532;-73
2022/03/07 09:08:57;;;;;;;51.00;37.20;;;;;;;;;;4947405;29;20018;-71
2022/03/07 09:11:23;;;;;;;50.00;37.25;;;;;;;;;;4929792;29;20099;-73
2022/03/07 09:13:49;;;;;;;50.63;35.70;;;;;;;;;;4931327;29;20040;-72
2022/03/07 09:16:25;;;;;;;43.42;32.58;;;;;;;;;;4942872;28;20103;-72
2022/03/07 09:18:54;;;;;;;46.47;32.05;;;;;;;;;;4943839;29;20047;-71
2022/03/07 09:21:20;;;;;;;43.78;33.05;;;;;;;;;;4947815;29;20087;-71
2022/03/07 09:23:46;;;;;;;44.97;31.85;;;;;;;;;;4948131;29;20015;-72
2022/03/07 09:26:13;;;;;;;42.60;31.63;;;;;;;;;;4948390;29;20036;-73
2022/03/07 09:28:47;;;;;;;43.00;30.90;;;;;;;;;;4949307;29;20074;-72
2022/03/07 09:31:26;;;;;;;43.97;32.30;;;;;;;;;;4930877;29;20043;-71
2022/03/07 09:34:14;;;;;;;42.20;31.25;;;;;;;;;;4941994;29;20030;-71
2022/03/07 09:36:48;;;;;;;48.17;33.55;;;;;;;;;;4942602;29;20060;-70
2022/03/07 09:39:22;;;;;;;49.17;35.03;;;;;;;;;;4902948;29;20031;-73
2022/03/07 09:41:51;;;;;;;49.70;34.17;;;;;;;;;;4953524;28;20054;-73
2022/03/07 09:44:17;;;;;;;47.47;32.05;;;;;;;;;;4956351;29;20111;-74
2022/03/07 09:46:44;;;;;;;47.47;30.40;;;;;;;;;;4954270;29;20035;-73
2022/03/07 09:49:13;;;;;;;50.08;31.27;;;;;;;;;;4946725;29;20036;-74
2022/03/07 09:51:40;;;;;;;49.92;31.95;;;;;;;;;;4956722;28;20032;-73
2022/03/07 09:54:28;;;;;;;46.83;31.63;;;;;;;;;;4901169;29;20524;-74
2022/03/07 09:59:48;;;;;;;49.37;31.50;;;;;;;;;;4953891;29;20058;-73
2022/03/07 10:02:22;;;;;;;49.92;30.08;;;;;;;;;;4966923;29;20042;-75
2022/03/07 10:05:26;;;;;;;;;;;;;;;;;;;;;
2022/03/07 10:07:53;;;;;;;46.63;30.92;;;;;;;;;;4863390;29;20885;-75
2022/03/07 10:10:19;;;;;;;49.17;31.10;;;;;;;;;;4939408;29;20031;-76
2022/03/07 10:13:06;;;;;;;50.10;31.35;;;;;;;;;;4951965;29;20071;-69
2022/03/07 10:15:58;;;;;;;47.65;31.80;;;;;;;;;;4926571;29;20048;-69
2022/03/07 10:18:52;;;;;;;43.80;31.42;;;;;;;;;;4947161;29;20034;-69
2022/03/07 10:24:46;;;;;;;42.55;29.83;;;;;;;;;;4903057;29;20079;-69
2022/03/07 10:27:41;;;;;;;45.20;31.27;;;;;;;;;;4926625;29;20123;-69
2022/03/07 10:30:12;;;;;;;41.22;29.98;;;;;;;;;;4916755;29;20039;-73
2022/03/07 10:32:39;;;;;;;41.63;29.45;;;;;;;;;;4941406;29;20114;-75
2022/03/07 10:35:06;;;;;;;49.45;30.00;;;;;;;;;;4959153;29;20075;-73
2022/03/07 10:37:38;;;;;;;43.92;30.10;;;;;;;;;;4952707;29;20053;-76
2022/03/07 10:40:08;;;;;;;48.13;30.33;;;;;;;;;;4959328;29;20028;-75
2022/03/07 10:42:36;;;;;;;42.83;30.15;;;;;;;;;;4953770;29;20038;-74
2022/03/07 10:45:06;;;;;;;44.45;29.88;;;;;;;;;;4953394;29;20031;-77
2022/03/07 10:47:32;;;;;;;43.15;28.60;;;;;;;;;;4935769;29;20034;-76
2022/03/07 10:50:03;;;;;;;50.10;31.27;;;;;;;;;;4948234;29;20129;-74
2022/03/07 10:52:39;;;;;;;48.90;32.05;;;;;;;;;;4938598;29;20032;-74
2022/03/07 10:55:10;;;;;;;47.00;29.30;;;;;;;;;;4954841;29;20044;-72
2022/03/07 10:57:40;;;;;;;47.80;34.33;;;;;;;;;;4953442;29;20051;-76
2022/03/07 11:00:14;;;;;;;52.55;34.85;;;;;;;;;;4938255;29;20067;-74
2022/03/07 11:02:41;;;;;;;51.10;34.22;;;;;;;;;;4925881;29;20024;-75
2022/03/07 11:05:08;;;;;;;49.75;35.33;;;;;;;;;;4940849;29;20032;-75
2022/03/07 11:07:37;;;;;;;43.88;30.90;;;;;;;;;;4937262;29;20024;-75
2022/03/07 11:10:04;;;;;;;57.78;36.20;;;;;;;;;;4943115;29;20036;-74
2022/03/07 11:12:30;;;;;;;48.40;33.58;;;;;;;;;;4921699;29;20389;-76
2022/03/07 11:14:58;;;;;;;54.22;38.65;;;;;;;;;;4938247;29;20032;-75
2022/03/07 11:17:25;;;;;;;74.13;39.90;;;;;;;;;;4937078;29;20044;-73
2022/03/07 11:19:54;;;;;;;53.50;35.30;;;;;;;;;;4943150;29;20024;-75
2022/03/07 11:22:21;;;;;;;46.67;31.98;;;;;;;;;;4947732;29;20099;-74
2022/03/07 11:24:47;;;;;;;45.42;32.40;;;;;;;;;;4943336;29;20050;-74
2022/03/07 11:27:16;;;;;;;51.22;32.45;;;;;;;;;;4929463;29;20039;-75
2022/03/07 11:29:50;;;;;;;48.40;32.95;;;;;;;;;;4964406;29;20035;-76
2022/03/07 11:32:19;;;;;;;47.35;32.33;;;;;;;;;;4948131;29;20035;-75
2022/03/07 11:34:58;;;;;;;45.00;31.38;;;;;;;;;;4921352;29;20028;-77
2022/03/07 11:37:27;;;;;;;44.88;31.27;;;;;;;;;;4944222;29;20032;-74
2022/03/07 11:39:56;;;;;;;56.45;35.47;;;;;;;;;;4951912;28;20043;-76
2022/03/07 11:42:23;;;;;;;46.67;30.92;;;;;;;;;;4950606;29;20052;-77
2022/03/07 11:44:50;;;;;;;53.13;35.15;;;;;;;;;;4937069;29;20142;-76
2022/03/07 11:47:22;;;;;;;48.67;33.83;;;;;;;;;;4955049;29;20081;-74
2022/03/07 11:49:59;;;;;;;48.95;31.73;;;;;;;;;;4962320;29;20481;-74
2022/03/07 11:52:25;;;;;;;49.05;31.23;;;;;;;;;;4946012;29;20413;-74
2022/03/07 11:54:51;;;;;;;44.08;30.40;;;;;;;;;;4946476;29;20040;-75
2022/03/07 11:57:20;;;;;;;40.30;30.27;;;;;;;;;;4957017;29;20091;-75
2022/03/07 11:59:46;;;;;;;42.67;29.88;;;;;;;;;;4944371;29;20039;-75
2022/03/07 12:02:12;;;;;;;46.17;31.35;;;;;;;;;;4948631;29;20055;-74
2022/03/07 12:04:43;;;;;;;42.53;31.25;;;;;;;;;;4963268;29;20063;-74
2022/03/07 12:07:09;;;;;;;45.13;32.13;;;;;;;;;;4945426;29;20047;-72
2022/03/07 12:09:36;;;;;;;180.40;75.10;;;;;;;;;;4964106;29;20028;-72
2022/03/07 12:12:15;;;;;;;64.90;39.47;;;;;;;;;;4950029;29;20098;-74
2022/03/07 12:14:45;;;;;;;66.10;34.88;;;;;;;;;;4956989;28;20107;-73
2022/03/07 12:17:24;;;;;;;60.08;39.97;;;;;;;;;;4928031;29;20054;-72
2022/03/07 12:19:57;;;;;;;58.47;40.05;;;;;;;;;;4926270;29;20039;-75
2022/03/07 12:22:25;;;;;;;53.38;37.13;;;;;;;;;;4916992;29;20024;-77
2022/03/07 12:24:54;;;;;;;55.92;37.58;;;;;;;;;;4930772;29;20039;-74
2022/03/07 12:27:22;;;;;;;49.85;35.78;;;;;;;;;;4921232;29;20036;-73
2022/03/07 12:29:52;;;;;;;50.50;34.13;;;;;;;;;;4934750;29;20170;-74
2022/03/07 12:32:22;;;;;;;47.90;32.65;;;;;;;;;;4924192;29;20030;-74
2022/03/07 12:34:48;;;;;;;44.65;32.88;;;;;;;;;;4933584;29;20024;-72
2022/03/07 12:37:17;;;;;;;46.08;32.05;;;;;;;;;;4909847;29;20035;-74
2022/03/07 12:39:43;;;;;;;46.42;34.28;;;;;;;;;;4938945;29;20035;-74
2022/03/07 12:42:09;;;;;;;43.50;29.67;;;;;;;;;;4942975;29;20043;-74
2022/03/07 12:44:38;;;;;;;41.65;30.30;;;;;;;;;;4951596;29;20036;-72
2022/03/07 12:47:04;;;;;;;47.92;31.23;;;;;;;;;;4919213;29;20130;-75
2022/03/07 12:49:30;;;;;;;46.30;32.05;;;;;;;;;;4920770;29;20182;-72
2022/03/07 12:52:06;;;;;;;41.13;30.05;;;;;;;;;;4925515;29;20072;-72
2022/03/07 12:54:36;;;;;;;44.42;30.33;;;;;;;;;;4932398;29;20469;-78
2022/03/07 12:57:15;;;;;;;39.85;29.50;;;;;;;;;;4937449;29;20131;-72
2022/03/07 12:59:42;;;;;;;42.25;31.15;;;;;;;;;;4948393;29;20020;-74
2022/03/07 13:02:09;;;;;;;42.95;29.42;;;;;;;;;;4927331;29;20051;-71
2022/03/07 13:04:53;;;;;;;41.20;28.08;;;;;;;;;;4924776;29;20039;-70
2022/03/07 13:10:29;;;;;;;41.83;27.38;;;;;;;;;;4883976;29;20037;-72
2022/03/07 13:12:57;;;;;;;35.90;26.60;;;;;;;;;;4868785;29;20044;-72
2022/03/07 13:15:24;;;;;;;40.60;26.42;;;;;;;;;;4878831;29;20045;-74
2022/03/07 13:18:15;;;;;;;41.60;27.73;;;;;;;;;;4866786;29;21196;-73
2022/03/07 13:20:47;;;;;;;37.92;28.20;;;;;;;;;;4882959;29;20037;-73
2022/03/07 13:23:13;;;;;;;45.15;26.17;;;;;;;;;;4877234;29;20036;-73
2022/03/07 13:25:42;;;;;;;36.35;24.98;;;;;;;;;;4877266;29;20041;-74
2022/03/07 13:28:09;;;;;;;34.95;24.58;;;;;;;;;;4861609;29;20460;-76
2022/03/07 13:30:36;;;;;;;36.30;25.48;;;;;;;;;;4880177;29;20034;-74
2022/03/07 13:33:03;;;;;;;30.42;21.70;;;;;;;;;;4874553;29;20045;-76
2022/03/07 13:35:29;;;;;;;30.70;22.13;;;;;;;;;;4875111;29;20029;-74
2022/03/07 13:37:56;;;;;;;35.63;24.13;;;;;;;;;;4875708;29;20056;-76
2022/03/07 13:40:27;;;;;;;54.03;31.67;;;;;;;;;;4877399;29;20077;-73
2022/03/07 13:42:54;;;;;;;58.45;32.72;;;;;;;;;;4886949;29;20025;-73
2022/03/07 13:45:24;;;;;;;59.60;33.35;;;;;;;;;;4897005;29;20037;-72
2022/03/07 13:47:57;;;;;;;34.58;21.80;;;;;;;;;;4911920;29;20047;-71
2022/03/07 13:50:25;;;;;;;57.20;36.28;;;;;;;;;;4910648;29;20080;-71
2022/03/07 13:53:01;;;;;;;42.15;29.25;;;;;;;;;;4925929;29;20082;-71
2022/03/07 13:55:31;;;;;;;36.90;24.10;;;;;;;;;;4928012;29;20406;-72
2022/03/07 13:57:57;;;;;;;35.92;24.52;;;;;;;;;;4925354;29;20039;-72
2022/03/07 14:00:25;;;;;;;33.33;22.20;;;;;;;;;;4931546;29;20039;-72
2022/03/07 14:02:56;;;;;;;34.50;24.63;;;;;;;;;;4945561;29;20473;-71
2022/03/07 14:05:22;;;;;;;35.70;22.40;;;;;;;;;;4945103;29;20023;-72
2022/03/07 14:07:55;;;;;;;33.42;20.20;;;;;;;;;;4947576;29;20024;-72
2022/03/07 14:10:22;;;;;;;47.00;29.88;;;;;;;;;;4948101;29;20027;-71
2022/03/07 14:12:55;;;;;;;29.70;19.33;;;;;;;;;;4950510;29;20467;-72
2022/03/07 14:15:25;;;;;;;30.73;20.35;;;;;;;;;;4953540;29;20055;-72
2022/03/07 14:17:55;;;;;;;34.90;25.80;;;;;;;;;;4950729;29;20452;-71
2022/03/07 14:20:21;;;;;;;37.72;25.02;;;;;;;;;;4950982;29;20059;-71
2022/03/07 14:22:47;;;;;;;36.72;24.02;;;;;;;;;;4948878;29;20020;-72
2022/03/07 14:25:13;;;;;;;32.45;20.48;;;;;;;;;;4949988;29;20039;-71
2022/03/07 14:27:40;;;;;;;45.47;27.23;;;;;;;;;;4949017;28;20032;-71
2022/03/07 14:30:07;;;;;;;51.38;31.17;;;;;;;;;;4947347;29;20067;-71